createdAt,value
2018-12-06T00:00:34.213Z,22.42
2018-12-06T00:01:12.304Z,22.42
2018-12-06T00:01:50.243Z,22.41
2018-12-06T00:02:28.334Z,22.41
2018-12-06T00:03:06.383Z,22.42
2018-12-06T00:03:44.366Z,22.41
2018-12-06T00:04:22.130Z,22.41
2018-12-06T00:05:00.040Z,22.41
2018-12-06T00:05:38.063Z,22.42
2018-12-06T00:06:15.970Z,22.41
2018-12-06T00:06:54.119Z,22.41
2018-12-06T00:07:32.241Z,22.42
2018-12-06T00:08:09.989Z,22.41
2018-12-06T00:08:48.092Z,22.41
2018-12-06T00:09:25.783Z,22.41
2018-12-06T00:10:03.688Z,22.41
2018-12-06T00:10:41.807Z,22.40
2018-12-06T00:11:19.740Z,22.40
2018-12-06T00:11:57.636Z,22.41
2018-12-06T00:12:35.562Z,22.41
2018-12-06T00:13:13.675Z,22.41
2018-12-06T00:13:51.598Z,22.40
2018-12-06T00:14:29.227Z,22.41
2018-12-06T00:15:07.162Z,22.41
2018-12-06T00:15:45.141Z,22.41
2018-12-06T00:16:23.197Z,22.40
2018-12-06T00:17:01.190Z,22.41
2018-12-06T00:17:38.914Z,22.41
2018-12-06T00:18:16.822Z,22.40
2018-12-06T00:18:55.011Z,22.41
2018-12-06T00:19:33.051Z,22.41
2018-12-06T00:20:10.894Z,22.40
2018-12-06T00:20:48.887Z,22.41
2018-12-06T00:21:27.251Z,22.40
2018-12-06T00:22:05.330Z,22.40
2018-12-06T00:22:43.479Z,22.40
2018-12-06T00:23:21.399Z,22.40
2018-12-06T00:23:59.698Z,22.40
2018-12-06T00:24:37.578Z,22.40
2018-12-06T00:25:15.599Z,22.40
2018-12-06T00:25:53.498Z,22.40
2018-12-06T00:26:31.731Z,22.40
2018-12-06T00:27:09.755Z,22.40
2018-12-06T00:27:47.714Z,22.40
2018-12-06T00:28:25.616Z,22.40
2018-12-06T00:29:03.451Z,22.40
2018-12-06T00:29:41.624Z,22.40
2018-12-06T00:30:19.503Z,22.40
2018-12-06T00:30:57.473Z,22.41
2018-12-06T00:31:35.373Z,22.41
2018-12-06T00:32:13.455Z,22.41
2018-12-06T00:32:51.472Z,22.40
2018-12-06T00:33:29.065Z,22.41
2018-12-06T00:34:07.251Z,22.40
2018-12-06T00:34:45.225Z,22.39
2018-12-06T00:35:23.331Z,22.40
2018-12-06T00:36:01.114Z,22.40
2018-12-06T00:36:39.210Z,22.40
2018-12-06T00:37:17.210Z,22.41
2018-12-06T00:37:55.169Z,22.39
2018-12-06T00:38:33.129Z,22.39
2018-12-06T00:39:10.991Z,22.39
2018-12-06T00:39:48.879Z,22.40
2018-12-06T00:40:26.938Z,22.40
2018-12-06T00:41:04.868Z,22.40
2018-12-06T00:41:43.207Z,22.41
2018-12-06T00:42:22.372Z,22.40
2018-12-06T00:43:00.700Z,22.41
2018-12-06T00:43:38.797Z,22.41
2018-12-06T00:44:16.466Z,22.41
2018-12-06T00:44:54.188Z,22.42
2018-12-06T00:45:32.166Z,22.41
2018-12-06T00:46:10.299Z,22.41
2018-12-06T00:46:48.375Z,22.41
2018-12-06T00:47:26.377Z,22.42
2018-12-06T00:48:04.224Z,22.42
2018-12-06T00:48:42.184Z,22.43
2018-12-06T00:49:19.918Z,22.42
2018-12-06T00:49:58.093Z,22.42
2018-12-06T00:50:36.025Z,22.41
2018-12-06T00:51:14.035Z,22.42
2018-12-06T00:51:51.694Z,22.41
2018-12-06T00:52:29.414Z,22.41
2018-12-06T00:53:08.086Z,22.41
2018-12-06T00:53:46.066Z,22.42
2018-12-06T00:54:24.395Z,22.42
2018-12-06T00:55:02.578Z,22.42
2018-12-06T00:55:40.477Z,22.41
2018-12-06T00:56:18.518Z,22.42
2018-12-06T00:56:56.507Z,22.41
2018-12-06T00:57:34.507Z,22.41
2018-12-06T00:58:12.375Z,22.42
2018-12-06T00:58:50.334Z,22.41
2018-12-06T00:59:28.491Z,22.41
2018-12-06T01:00:06.326Z,22.42
2018-12-06T01:00:44.505Z,22.41
2018-12-06T01:01:22.595Z,22.42
2018-12-06T01:02:00.395Z,22.42
2018-12-06T01:02:38.277Z,22.42
2018-12-06T01:03:16.014Z,22.42
2018-12-06T01:03:54.169Z,22.42
2018-12-06T01:04:32.306Z,22.42
2018-12-06T01:05:10.535Z,22.43
2018-12-06T01:05:48.445Z,22.42
2018-12-06T01:06:26.407Z,22.42
2018-12-06T01:07:04.188Z,22.42
2018-12-06T01:08:26.180Z,22.43
2018-12-06T01:09:04.396Z,22.42
2018-12-06T01:09:42.071Z,22.42
2018-12-06T01:10:19.965Z,22.42
2018-12-06T01:10:58.059Z,22.43
2018-12-06T01:11:36.221Z,22.42
2018-12-06T01:12:14.027Z,22.43
2018-12-06T01:12:52.059Z,22.42
2018-12-06T01:13:30.138Z,22.43
2018-12-06T01:14:08.168Z,22.42
2018-12-06T01:14:46.149Z,22.43
2018-12-06T01:15:24.278Z,22.43
2018-12-06T01:16:02.447Z,22.43
2018-12-06T01:16:40.059Z,22.42
2018-12-06T01:17:17.956Z,22.43
2018-12-06T01:17:55.802Z,22.42
2018-12-06T01:18:33.775Z,22.43
2018-12-06T01:19:12.267Z,22.42
2018-12-06T01:19:50.077Z,22.42
2018-12-06T01:20:27.886Z,22.43
2018-12-06T01:21:05.816Z,22.43
2018-12-06T01:21:43.753Z,22.43
2018-12-06T01:22:21.735Z,22.41
2018-12-06T01:22:59.967Z,22.42
2018-12-06T01:23:37.937Z,22.43
2018-12-06T01:24:15.850Z,22.41
2018-12-06T01:24:54.048Z,22.43
2018-12-06T01:25:32.116Z,22.43
2018-12-06T01:26:10.019Z,22.43
2018-12-06T01:26:48.007Z,22.42
2018-12-06T01:27:26.123Z,22.42
2018-12-06T01:28:04.512Z,22.43
2018-12-06T01:28:42.407Z,22.42
2018-12-06T01:29:20.290Z,22.42
2018-12-06T01:29:57.966Z,22.43
2018-12-06T01:30:36.043Z,22.43
2018-12-06T01:31:14.187Z,22.42
2018-12-06T01:31:52.098Z,22.43
2018-12-06T01:32:29.913Z,22.42
2018-12-06T01:33:07.946Z,22.42
2018-12-06T01:33:45.828Z,22.42
2018-12-06T01:34:24.071Z,22.43
2018-12-06T01:35:01.767Z,22.43
2018-12-06T01:35:40.019Z,22.42
2018-12-06T01:36:17.886Z,22.42
2018-12-06T01:36:55.967Z,22.42
2018-12-06T01:37:34.027Z,22.43
2018-12-06T01:38:55.796Z,22.43
2018-12-06T01:39:33.558Z,22.42
2018-12-06T01:40:11.400Z,22.42
2018-12-06T01:40:49.507Z,22.42
2018-12-06T01:41:27.646Z,22.42
2018-12-06T01:42:05.256Z,22.42
2018-12-06T01:42:43.659Z,22.43
2018-12-06T01:43:21.668Z,22.43
2018-12-06T01:43:59.425Z,22.42
2018-12-06T01:44:37.589Z,22.43
2018-12-06T01:45:15.946Z,22.43
2018-12-06T01:45:53.916Z,22.42
2018-12-06T01:46:31.698Z,22.41
2018-12-06T01:47:09.296Z,22.42
2018-12-06T01:47:48.215Z,22.42
2018-12-06T01:48:26.027Z,22.42
2018-12-06T01:49:04.049Z,22.43
2018-12-06T01:49:42.200Z,22.43
2018-12-06T01:50:20.139Z,22.41
2018-12-06T01:50:57.818Z,22.43
2018-12-06T01:51:35.927Z,22.42
2018-12-06T01:52:13.838Z,22.42
2018-12-06T01:52:51.589Z,22.42
2018-12-06T01:53:29.608Z,22.41
2018-12-06T01:54:07.315Z,22.42
2018-12-06T01:54:45.387Z,22.41
2018-12-06T01:55:23.255Z,22.42
2018-12-06T01:56:00.935Z,22.43
2018-12-06T01:56:39.019Z,22.42
2018-12-06T01:57:16.956Z,22.41
2018-12-06T01:57:54.820Z,22.42
2018-12-06T01:58:32.431Z,22.42
2018-12-06T01:59:10.286Z,22.42
2018-12-06T01:59:48.237Z,22.42
2018-12-06T02:00:26.406Z,22.42
2018-12-06T02:01:04.596Z,22.42
2018-12-06T02:01:42.562Z,22.42
2018-12-06T02:02:20.575Z,22.43
2018-12-06T02:02:58.378Z,22.43
2018-12-06T02:03:36.236Z,22.42
2018-12-06T02:04:14.540Z,22.41
2018-12-06T02:04:52.293Z,22.42
2018-12-06T02:05:30.294Z,22.43
2018-12-06T02:06:08.343Z,22.43
2018-12-06T02:06:46.182Z,22.44
2018-12-06T02:07:24.016Z,22.43
2018-12-06T02:08:02.532Z,22.42
2018-12-06T02:08:40.472Z,22.42
2018-12-06T02:09:18.396Z,22.43
2018-12-06T02:09:56.331Z,22.40
2018-12-06T02:10:34.601Z,22.35
2018-12-06T02:11:12.505Z,22.33
2018-12-06T02:11:50.336Z,22.29
2018-12-06T02:12:28.220Z,22.23
2018-12-06T02:13:06.119Z,22.21
2018-12-06T02:13:44.140Z,22.17
2018-12-06T02:14:22.153Z,22.13
2018-12-06T02:15:00.041Z,22.10
2018-12-06T02:15:37.943Z,22.08
2018-12-06T02:16:15.948Z,22.06
2018-12-06T02:16:54.117Z,22.04
2018-12-06T02:17:32.113Z,22.02
2018-12-06T02:18:09.959Z,22.01
2018-12-06T02:18:48.008Z,22.01
2018-12-06T02:19:25.943Z,21.99
2018-12-06T02:20:03.848Z,21.97
2018-12-06T02:20:41.888Z,21.96
2018-12-06T02:21:19.843Z,21.95
2018-12-06T02:21:57.937Z,21.93
2018-12-06T02:22:35.887Z,21.93
2018-12-06T02:23:14.058Z,21.93
2018-12-06T02:23:51.850Z,21.90
2018-12-06T02:24:29.775Z,21.90
2018-12-06T02:25:07.695Z,21.90
2018-12-06T02:25:45.910Z,21.90
2018-12-06T02:26:23.935Z,21.89
2018-12-06T02:27:02.375Z,21.89
2018-12-06T02:27:40.264Z,21.89
2018-12-06T02:28:18.104Z,21.88
2018-12-06T02:28:56.213Z,21.87
2018-12-06T02:29:34.153Z,21.86
2018-12-06T02:30:11.772Z,21.86
2018-12-06T02:30:50.013Z,21.85
2018-12-06T02:31:28.333Z,21.83
2018-12-06T02:32:05.882Z,21.84
2018-12-06T02:32:44.023Z,21.83
2018-12-06T02:33:21.832Z,21.83
2018-12-06T02:33:59.673Z,21.81
2018-12-06T02:34:37.558Z,21.81
2018-12-06T02:35:15.330Z,21.80
2018-12-06T02:35:53.410Z,21.81
2018-12-06T02:36:31.341Z,21.81
2018-12-06T02:37:09.105Z,21.80
2018-12-06T02:37:47.093Z,21.80
2018-12-06T02:38:24.981Z,21.79
2018-12-06T02:39:03.063Z,21.77
2018-12-06T02:39:41.043Z,21.77
2018-12-06T02:40:19.099Z,21.76
2018-12-06T02:40:57.129Z,21.77
2018-12-06T02:41:35.269Z,21.75
2018-12-06T02:42:13.259Z,21.75
2018-12-06T02:42:51.450Z,21.75
2018-12-06T02:43:29.284Z,21.75
2018-12-06T02:44:07.208Z,21.74
2018-12-06T02:44:45.311Z,21.75
2018-12-06T02:45:22.777Z,21.75
2018-12-06T02:46:00.371Z,21.75
2018-12-06T02:46:38.080Z,21.74
2018-12-06T02:47:15.622Z,21.74
2018-12-06T02:47:53.261Z,21.73
2018-12-06T02:48:30.931Z,21.73
2018-12-06T02:49:08.421Z,21.73
2018-12-06T02:49:46.568Z,21.71
2018-12-06T02:50:24.486Z,21.70
2018-12-06T02:51:02.044Z,21.72
2018-12-06T02:51:39.560Z,21.71
2018-12-06T02:52:17.809Z,21.72
2018-12-06T02:52:55.600Z,21.70
2018-12-06T02:53:33.275Z,21.69
2018-12-06T02:54:10.650Z,21.70
2018-12-06T02:54:48.351Z,21.69
2018-12-06T02:55:26.465Z,21.69
2018-12-06T02:56:04.236Z,21.70
2018-12-06T02:56:41.883Z,21.71
2018-12-06T02:57:19.488Z,21.70
2018-12-06T02:57:57.092Z,21.70
2018-12-06T02:58:35.020Z,21.68
2018-12-06T02:59:12.864Z,21.68
2018-12-06T02:59:51.327Z,21.68
2018-12-06T03:00:29.208Z,21.68
2018-12-06T03:01:07.071Z,21.68
2018-12-06T03:01:45.024Z,21.68
2018-12-06T03:02:22.986Z,21.67
2018-12-06T03:03:01.125Z,21.67
2018-12-06T03:03:38.788Z,21.67
2018-12-06T03:04:18.222Z,21.66
2018-12-06T03:04:55.824Z,21.66
2018-12-06T03:05:33.375Z,21.66
2018-12-06T03:06:10.884Z,21.66
2018-12-06T03:06:48.553Z,21.65
2018-12-06T03:07:26.445Z,21.66
2018-12-06T03:08:04.377Z,21.66
2018-12-06T03:08:42.059Z,21.65
2018-12-06T03:09:19.646Z,21.67
2018-12-06T03:09:57.177Z,21.65
2018-12-06T03:10:34.796Z,21.65
2018-12-06T03:11:12.983Z,21.64
2018-12-06T03:11:50.700Z,21.64
2018-12-06T03:12:28.326Z,21.64
2018-12-06T03:13:06.022Z,21.63
2018-12-06T03:13:43.907Z,21.62
2018-12-06T03:14:21.304Z,21.62
2018-12-06T03:14:58.992Z,21.61
2018-12-06T03:15:36.681Z,21.62
2018-12-06T03:16:14.492Z,21.61
2018-12-06T03:16:52.294Z,21.62
2018-12-06T03:17:29.873Z,21.62
2018-12-06T03:18:07.487Z,21.60
2018-12-06T03:18:45.371Z,21.62
2018-12-06T03:19:23.803Z,21.60
2018-12-06T03:20:02.109Z,21.61
2018-12-06T03:20:39.930Z,21.61
2018-12-06T03:21:17.648Z,21.60
2018-12-06T03:21:55.342Z,21.60
2018-12-06T03:22:33.341Z,21.61
2018-12-06T03:23:10.882Z,21.60
2018-12-06T03:23:48.552Z,21.60
2018-12-06T03:24:26.056Z,21.60
2018-12-06T03:25:03.660Z,21.60
2018-12-06T03:25:41.208Z,21.61
2018-12-06T03:26:18.847Z,21.60
2018-12-06T03:26:56.574Z,21.63
2018-12-06T03:27:34.542Z,21.62
2018-12-06T03:28:12.344Z,21.61
2018-12-06T03:28:50.166Z,21.61
2018-12-06T03:29:28.065Z,21.62
2018-12-06T03:30:05.801Z,21.60
2018-12-06T03:30:43.792Z,21.59
2018-12-06T03:31:21.349Z,21.59
2018-12-06T03:31:58.841Z,21.59
2018-12-06T03:32:36.540Z,21.59
2018-12-06T03:33:14.308Z,21.59
2018-12-06T03:33:51.826Z,21.58
2018-12-06T03:34:29.898Z,21.57
2018-12-06T03:35:07.696Z,21.57
2018-12-06T03:35:45.672Z,21.57
2018-12-06T03:36:23.245Z,21.57
2018-12-06T03:37:01.135Z,21.57
2018-12-06T03:37:38.903Z,21.56
2018-12-06T03:38:16.510Z,21.56
2018-12-06T03:38:54.355Z,21.56
2018-12-06T03:39:32.493Z,21.56
2018-12-06T03:40:10.396Z,21.54
2018-12-06T03:40:47.937Z,21.55
2018-12-06T03:41:25.596Z,21.54
2018-12-06T03:42:03.739Z,21.53
2018-12-06T03:42:41.476Z,21.54
2018-12-06T03:43:19.656Z,21.53
2018-12-06T03:43:57.707Z,21.53
2018-12-06T03:44:35.169Z,21.53
2018-12-06T03:45:13.197Z,21.53
2018-12-06T03:45:51.225Z,21.54
2018-12-06T03:46:29.086Z,21.53
2018-12-06T03:47:06.652Z,21.52
2018-12-06T03:47:44.420Z,21.52
2018-12-06T03:48:22.745Z,21.52
2018-12-06T03:49:00.382Z,21.52
2018-12-06T03:49:38.500Z,21.52
2018-12-06T03:50:16.444Z,21.52
2018-12-06T03:50:54.372Z,21.52
2018-12-06T03:51:32.405Z,21.52
2018-12-06T03:52:10.273Z,21.52
2018-12-06T03:52:48.352Z,21.52
2018-12-06T03:53:26.153Z,21.50
2018-12-06T03:54:04.103Z,21.51
2018-12-06T03:54:42.112Z,21.50
2018-12-06T03:55:20.307Z,21.51
2018-12-06T03:55:58.222Z,21.51
2018-12-06T03:56:36.294Z,21.50
2018-12-06T03:57:14.486Z,21.50
2018-12-06T03:57:52.343Z,21.50
2018-12-06T03:58:30.259Z,21.50
2018-12-06T03:59:08.163Z,21.50
2018-12-06T03:59:46.349Z,21.50
2018-12-06T04:00:24.737Z,21.49
2018-12-06T04:01:02.447Z,21.48
2018-12-06T04:01:40.660Z,21.49
2018-12-06T04:02:18.525Z,21.49
2018-12-06T04:02:56.308Z,21.49
2018-12-06T04:03:34.196Z,21.49
2018-12-06T04:04:12.178Z,21.48
2018-12-06T04:04:50.161Z,21.48
2018-12-06T04:05:28.170Z,21.48
2018-12-06T04:06:05.898Z,21.48
2018-12-06T04:06:43.703Z,21.49
2018-12-06T04:07:21.922Z,21.49
2018-12-06T04:08:00.011Z,21.51
2018-12-06T04:08:38.091Z,21.50
2018-12-06T04:09:16.244Z,21.51
2018-12-06T04:09:54.340Z,21.52
2018-12-06T04:10:32.412Z,21.51
2018-12-06T04:11:10.703Z,21.51
2018-12-06T04:11:48.901Z,21.52
2018-12-06T04:12:26.951Z,21.52
2018-12-06T04:13:04.933Z,21.52
2018-12-06T04:13:43.093Z,21.52
2018-12-06T04:14:21.142Z,21.53
2018-12-06T04:14:59.305Z,21.52
2018-12-06T04:15:37.361Z,21.52
2018-12-06T04:16:15.142Z,21.53
2018-12-06T04:16:53.064Z,21.53
2018-12-06T04:17:31.014Z,21.53
2018-12-06T04:18:08.964Z,21.53
2018-12-06T04:18:46.947Z,21.53
2018-12-06T04:19:25.229Z,21.53
2018-12-06T04:20:03.206Z,21.53
2018-12-06T04:20:41.026Z,21.53
2018-12-06T04:21:19.185Z,21.52
2018-12-06T04:21:56.818Z,21.52
2018-12-06T04:22:35.047Z,21.52
2018-12-06T04:23:13.083Z,21.52
2018-12-06T04:23:51.365Z,21.52
2018-12-06T04:24:29.557Z,21.53
2018-12-06T04:25:07.549Z,21.54
2018-12-06T04:25:45.316Z,21.52
2018-12-06T04:26:23.276Z,21.54
2018-12-06T04:27:01.048Z,21.55
2018-12-06T04:27:39.121Z,21.55
2018-12-06T04:28:17.300Z,21.53
2018-12-06T04:28:55.497Z,21.54
2018-12-06T04:29:33.747Z,21.53
2018-12-06T04:30:12.268Z,21.53
2018-12-06T04:30:50.432Z,21.55
2018-12-06T04:31:28.558Z,21.54
2018-12-06T04:32:06.618Z,21.56
2018-12-06T04:32:44.553Z,21.55
2018-12-06T04:33:22.728Z,21.56
2018-12-06T04:34:00.648Z,21.55
2018-12-06T04:34:38.408Z,21.56
2018-12-06T04:35:16.698Z,21.56
2018-12-06T04:35:55.338Z,21.55
2018-12-06T04:36:33.549Z,21.56
2018-12-06T04:37:11.339Z,21.56
2018-12-06T04:37:49.567Z,21.56
2018-12-06T04:38:27.399Z,21.55
2018-12-06T04:39:05.381Z,21.55
2018-12-06T04:39:43.446Z,21.54
2018-12-06T04:40:21.586Z,21.56
2018-12-06T04:40:59.288Z,21.56
2018-12-06T04:41:37.157Z,21.56
2018-12-06T04:42:15.129Z,21.55
2018-12-06T04:42:53.108Z,21.56
2018-12-06T04:43:30.990Z,21.56
2018-12-06T04:44:09.324Z,21.55
2018-12-06T04:44:47.497Z,21.57
2018-12-06T04:45:25.489Z,21.57
2018-12-06T04:46:03.223Z,21.56
2018-12-06T04:46:41.809Z,21.57
2018-12-06T04:47:19.769Z,21.57
2018-12-06T04:47:57.700Z,21.57
2018-12-06T04:48:35.680Z,21.58
2018-12-06T04:49:13.703Z,21.57
2018-12-06T04:49:51.739Z,21.56
2018-12-06T04:50:29.561Z,21.57
2018-12-06T04:51:07.503Z,21.55
2018-12-06T04:51:45.853Z,21.57
2018-12-06T04:52:23.982Z,21.57
2018-12-06T04:53:01.803Z,21.58
2018-12-06T04:53:39.669Z,21.56
2018-12-06T04:54:17.399Z,21.57
2018-12-06T04:54:55.451Z,21.56
2018-12-06T04:55:33.213Z,21.57
2018-12-06T04:56:11.270Z,21.57
2018-12-06T04:56:49.560Z,21.58
2018-12-06T04:57:27.633Z,21.58
2018-12-06T04:58:05.481Z,21.57
2018-12-06T04:58:43.492Z,21.58
2018-12-06T04:59:21.650Z,21.57
2018-12-06T04:59:59.882Z,21.58
2018-12-06T05:00:37.723Z,21.57
2018-12-06T05:01:15.781Z,21.57
2018-12-06T05:01:53.681Z,21.58
2018-12-06T05:02:31.441Z,21.58
2018-12-06T05:03:09.140Z,21.59
2018-12-06T05:03:47.462Z,21.59
2018-12-06T05:04:25.239Z,21.58
2018-12-06T05:05:03.043Z,21.58
2018-12-06T05:05:41.125Z,21.57
2018-12-06T05:06:18.905Z,21.58
2018-12-06T05:06:56.622Z,21.58
2018-12-06T05:07:34.760Z,21.58
2018-12-06T05:08:12.750Z,21.58
2018-12-06T05:08:50.412Z,21.59
2018-12-06T05:09:28.831Z,21.58
2018-12-06T05:10:06.921Z,21.58
2018-12-06T05:10:45.182Z,21.59
2018-12-06T05:11:23.422Z,21.58
2018-12-06T05:12:01.438Z,21.59
2018-12-06T05:12:39.402Z,21.58
2018-12-06T05:13:17.703Z,21.58
2018-12-06T05:13:55.961Z,21.58
2018-12-06T05:14:34.053Z,21.58
2018-12-06T05:15:11.842Z,21.59
2018-12-06T05:15:49.832Z,21.59
2018-12-06T05:16:28.272Z,21.60
2018-12-06T05:17:06.472Z,21.59
2018-12-06T05:17:44.271Z,21.59
2018-12-06T05:18:22.553Z,21.58
2018-12-06T05:19:00.794Z,21.59
2018-12-06T05:19:39.018Z,21.59
2018-12-06T05:20:16.769Z,21.60
2018-12-06T05:20:54.866Z,21.59
2018-12-06T05:21:32.921Z,21.59
2018-12-06T05:22:10.831Z,21.58
2018-12-06T05:22:48.803Z,21.58
2018-12-06T05:23:26.792Z,21.58
2018-12-06T05:24:05.172Z,21.57
2018-12-06T05:24:43.182Z,21.58
2018-12-06T05:25:21.165Z,21.58
2018-12-06T05:25:59.233Z,21.59
2018-12-06T05:26:37.457Z,21.59
2018-12-06T05:27:15.652Z,21.58
2018-12-06T05:27:53.752Z,21.58
2018-12-06T05:28:31.627Z,21.58
2018-12-06T05:29:09.733Z,21.58
2018-12-06T05:29:47.623Z,21.59
2018-12-06T05:30:25.947Z,21.58
2018-12-06T05:31:03.855Z,21.59
2018-12-06T05:31:41.705Z,21.59
2018-12-06T05:32:19.615Z,21.59
2018-12-06T05:32:57.474Z,21.60
2018-12-06T05:33:35.302Z,21.59
2018-12-06T05:34:13.383Z,21.60
2018-12-06T05:34:51.272Z,21.59
2018-12-06T05:35:29.182Z,21.58
2018-12-06T05:36:07.397Z,21.58
2018-12-06T05:36:46.213Z,21.58
2018-12-06T05:37:24.294Z,21.60
2018-12-06T05:38:02.432Z,21.58
2018-12-06T05:38:41.771Z,21.58
2018-12-06T05:39:20.505Z,21.58
2018-12-06T05:39:58.400Z,21.58
2018-12-06T05:40:36.552Z,21.59
2018-12-06T05:41:14.541Z,21.58
2018-12-06T05:41:52.632Z,21.58
2018-12-06T05:42:30.507Z,21.58
2018-12-06T05:43:08.449Z,21.59
2018-12-06T05:43:46.500Z,21.59
2018-12-06T05:44:24.681Z,21.59
2018-12-06T05:45:02.734Z,21.60
2018-12-06T05:45:40.353Z,21.60
2018-12-06T05:46:18.375Z,21.60
2018-12-06T05:46:56.500Z,21.59
2018-12-06T05:47:34.461Z,21.59
2018-12-06T05:48:12.360Z,21.59
2018-12-06T05:48:50.443Z,21.59
2018-12-06T05:49:28.193Z,21.59
2018-12-06T05:50:05.958Z,21.60
2018-12-06T05:50:44.085Z,21.59
2018-12-06T05:51:21.890Z,21.60
2018-12-06T05:51:59.850Z,21.59
2018-12-06T05:52:37.864Z,21.59
2018-12-06T05:53:15.779Z,21.58
2018-12-06T05:53:53.489Z,21.59
2018-12-06T05:54:31.628Z,21.59
2018-12-06T05:55:09.570Z,21.58
2018-12-06T05:55:47.652Z,21.59
2018-12-06T05:56:25.689Z,21.58
2018-12-06T05:57:03.850Z,21.59
2018-12-06T05:57:41.991Z,21.59
2018-12-06T05:58:19.969Z,21.59
2018-12-06T05:58:57.988Z,21.58
2018-12-06T05:59:35.842Z,21.58
2018-12-06T06:00:14.150Z,21.58
2018-12-06T06:00:52.069Z,21.58
2018-12-06T06:01:30.022Z,21.58
2018-12-06T06:02:08.119Z,21.58
2018-12-06T06:02:46.097Z,21.59
2018-12-06T06:03:23.870Z,21.58
2018-12-06T06:04:02.048Z,21.58
2018-12-06T06:04:39.800Z,21.58
2018-12-06T06:05:17.489Z,21.58
2018-12-06T06:05:55.744Z,21.58
2018-12-06T06:06:33.538Z,21.58
2018-12-06T06:07:11.398Z,21.57
2018-12-06T06:07:49.760Z,21.57
2018-12-06T06:08:28.111Z,21.58
2018-12-06T06:09:06.177Z,21.58
2018-12-06T06:09:44.166Z,21.58
2018-12-06T06:10:22.610Z,21.57
2018-12-06T06:11:00.288Z,21.57
2018-12-06T06:11:39.488Z,21.57
2018-12-06T06:12:17.879Z,21.57
2018-12-06T06:12:56.099Z,21.57
2018-12-06T06:13:34.057Z,21.57
2018-12-06T06:14:11.929Z,21.57
2018-12-06T06:14:49.856Z,21.58
2018-12-06T06:15:27.818Z,21.57
2018-12-06T06:16:05.661Z,21.57
2018-12-06T06:16:44.577Z,21.58
2018-12-06T06:17:24.519Z,21.57
2018-12-06T06:18:03.799Z,21.58
2018-12-06T06:18:41.847Z,21.58
2018-12-06T06:19:19.647Z,21.57
2018-12-06T06:19:57.976Z,21.57
2018-12-06T06:20:35.736Z,21.57
2018-12-06T06:21:14.725Z,21.57
2018-12-06T06:21:52.676Z,21.57
2018-12-06T06:22:30.557Z,21.57
2018-12-06T06:23:08.697Z,21.57
2018-12-06T06:23:46.447Z,21.58
2018-12-06T06:24:24.487Z,21.57
2018-12-06T06:25:02.538Z,21.57
2018-12-06T06:25:40.682Z,21.56
2018-12-06T06:26:18.305Z,21.56
2018-12-06T06:26:56.255Z,21.56
2018-12-06T06:27:34.536Z,21.55
2018-12-06T06:28:12.476Z,21.56
2018-12-06T06:28:50.728Z,21.56
2018-12-06T06:29:28.676Z,21.56
2018-12-06T06:30:06.518Z,21.57
2018-12-06T06:30:44.429Z,21.57
2018-12-06T06:31:21.950Z,21.55
2018-12-06T06:32:00.147Z,21.56
2018-12-06T06:32:38.025Z,21.56
2018-12-06T06:33:15.955Z,21.56
2018-12-06T06:33:54.115Z,21.56
2018-12-06T06:34:32.161Z,21.56
2018-12-06T06:35:11.506Z,21.57
2018-12-06T06:35:49.308Z,21.56
2018-12-06T06:36:27.058Z,21.57
2018-12-06T06:37:05.135Z,21.56
2018-12-06T06:37:43.406Z,21.56
2018-12-06T06:38:21.365Z,21.56
2018-12-06T06:38:59.207Z,21.56
2018-12-06T06:39:37.376Z,21.56
2018-12-06T06:40:15.756Z,21.56
2018-12-06T06:40:53.656Z,21.56
2018-12-06T06:41:31.535Z,21.55
2018-12-06T06:42:09.311Z,21.56
2018-12-06T06:42:47.085Z,21.55
2018-12-06T06:43:25.097Z,21.54
2018-12-06T06:44:03.776Z,21.53
2018-12-06T06:44:41.826Z,21.56
2018-12-06T06:45:19.912Z,21.55
2018-12-06T06:45:58.199Z,21.54
2018-12-06T06:46:36.305Z,21.55
2018-12-06T06:47:14.267Z,21.56
2018-12-06T06:47:52.261Z,21.56
2018-12-06T06:48:31.198Z,21.55
2018-12-06T06:49:13.857Z,21.55
2018-12-06T06:49:49.198Z,21.55
2018-12-06T06:50:27.016Z,21.55
2018-12-06T06:51:05.307Z,21.56
2018-12-06T06:51:44.115Z,21.56
2018-12-06T06:52:22.455Z,21.56
2018-12-06T06:53:00.357Z,21.54
2018-12-06T06:53:38.364Z,21.55
2018-12-06T06:54:16.814Z,21.54
2018-12-06T06:54:54.456Z,21.54
2018-12-06T06:55:32.536Z,21.54
2018-12-06T06:56:10.891Z,21.54
2018-12-06T06:56:48.649Z,21.54
2018-12-06T06:57:26.513Z,21.53
2018-12-06T06:58:04.704Z,21.53
2018-12-06T06:58:42.726Z,21.53
2018-12-06T06:59:26.046Z,21.54
2018-12-06T07:00:00.784Z,21.53
2018-12-06T07:00:38.476Z,21.52
2018-12-06T07:01:16.591Z,21.54
2018-12-06T07:01:54.763Z,21.53
2018-12-06T07:02:32.532Z,21.56
2018-12-06T07:03:10.322Z,21.53
2018-12-06T07:03:48.407Z,21.56
2018-12-06T07:04:26.415Z,21.56
2018-12-06T07:05:04.513Z,21.56
2018-12-06T07:05:42.423Z,21.56
2018-12-06T07:06:20.383Z,21.54
2018-12-06T07:06:58.433Z,21.56
2018-12-06T07:07:36.502Z,21.54
2018-12-06T07:08:14.343Z,21.55
2018-12-06T07:08:52.473Z,21.54
2018-12-06T07:09:30.664Z,21.54
2018-12-06T07:10:08.515Z,21.54
2018-12-06T07:10:47.282Z,21.53
2018-12-06T07:11:25.248Z,21.53
2018-12-06T07:12:03.192Z,21.53
2018-12-06T07:12:42.121Z,21.53
2018-12-06T07:13:20.081Z,21.53
2018-12-06T07:13:57.742Z,21.54
2018-12-06T07:14:35.673Z,21.53
2018-12-06T07:15:13.490Z,21.53
2018-12-06T07:15:52.464Z,21.51
2018-12-06T07:16:30.622Z,21.53
2018-12-06T07:17:08.430Z,21.54
2018-12-06T07:17:46.403Z,21.53
2018-12-06T07:18:24.325Z,21.54
2018-12-06T07:19:02.130Z,21.53
2018-12-06T07:19:40.032Z,21.51
2018-12-06T07:20:18.000Z,21.50
2018-12-06T07:20:55.739Z,21.49
2018-12-06T07:21:33.485Z,21.47
2018-12-06T07:22:11.864Z,21.47
2018-12-06T07:22:49.902Z,21.46
2018-12-06T07:23:28.008Z,21.46
2018-12-06T07:24:06.022Z,21.43
2018-12-06T07:24:43.752Z,21.43
2018-12-06T07:25:21.802Z,21.43
2018-12-06T07:25:59.879Z,21.44
2018-12-06T07:26:37.541Z,21.42
2018-12-06T07:27:15.498Z,21.43
2018-12-06T07:27:53.539Z,21.42
2018-12-06T07:28:31.609Z,21.42
2018-12-06T07:29:09.469Z,21.41
2018-12-06T07:29:48.546Z,21.42
2018-12-06T07:30:26.839Z,21.41
2018-12-06T07:31:04.758Z,21.39
2018-12-06T07:31:42.564Z,21.40
2018-12-06T07:32:20.708Z,21.39
2018-12-06T07:32:58.597Z,21.39
2018-12-06T07:33:36.639Z,21.48
2018-12-06T07:34:14.559Z,21.53
2018-12-06T07:34:52.498Z,21.59
2018-12-06T07:35:32.159Z,21.64
2018-12-06T07:36:10.448Z,21.69
2018-12-06T07:36:48.107Z,21.72
2018-12-06T07:37:26.347Z,21.78
2018-12-06T07:38:04.454Z,21.81
2018-12-06T07:38:42.349Z,21.85
2018-12-06T07:39:20.398Z,21.89
2018-12-06T07:39:58.348Z,21.92
2018-12-06T07:40:36.858Z,21.93
2018-12-06T07:41:14.688Z,21.94
2018-12-06T07:42:36.516Z,21.99
2018-12-06T07:43:14.481Z,22.00
2018-12-06T07:43:52.356Z,22.00
2018-12-06T07:44:30.697Z,22.02
2018-12-06T07:45:08.706Z,22.01
2018-12-06T07:45:46.298Z,22.02
2018-12-06T07:46:24.378Z,22.01
2018-12-06T07:47:02.295Z,22.01
2018-12-06T07:47:40.483Z,22.02
2018-12-06T07:48:18.529Z,22.03
2018-12-06T07:48:56.306Z,22.02
2018-12-06T07:49:34.886Z,22.03
2018-12-06T07:50:12.877Z,22.03
2018-12-06T07:50:50.767Z,22.03
2018-12-06T07:51:28.597Z,22.04
2018-12-06T07:52:06.389Z,22.04
2018-12-06T07:52:44.096Z,22.05
2018-12-06T07:53:22.436Z,22.05
2018-12-06T07:54:00.256Z,22.06
2018-12-06T07:54:38.276Z,22.06
2018-12-06T07:55:16.054Z,22.06
2018-12-06T07:55:53.905Z,22.08
2018-12-06T07:56:31.558Z,22.08
2018-12-06T07:57:09.258Z,22.08
2018-12-06T07:57:47.296Z,22.08
2018-12-06T07:58:24.927Z,22.09
2018-12-06T07:59:03.042Z,22.09
2018-12-06T07:59:41.182Z,22.09
2018-12-06T08:00:19.553Z,22.09
2018-12-06T08:00:57.441Z,22.10
2018-12-06T08:01:35.510Z,22.10
2018-12-06T08:02:13.519Z,22.10
2018-12-06T08:02:51.581Z,22.11
2018-12-06T08:03:29.531Z,22.10
2018-12-06T08:04:07.614Z,22.11
2018-12-06T08:04:45.555Z,22.11
2018-12-06T08:05:23.693Z,22.12
2018-12-06T08:06:01.551Z,22.12
2018-12-06T08:06:39.617Z,22.11
2018-12-06T08:07:17.484Z,22.13
2018-12-06T08:07:57.287Z,22.09
2018-12-06T08:08:34.808Z,22.13
2018-12-06T08:09:12.546Z,22.12
2018-12-06T08:09:50.676Z,22.12
2018-12-06T08:10:28.598Z,22.13
2018-12-06T08:11:06.629Z,22.13
2018-12-06T08:11:44.800Z,22.13